createdAt,value
2019-06-26T00:01:26.587Z,75.85
2019-06-26T00:03:57.446Z,74.87
2019-06-26T00:06:28.862Z,74.12
2019-06-26T00:08:59.902Z,71.07
2019-06-26T00:11:30.563Z,76.05
2019-06-26T00:14:01.786Z,71.05
2019-06-26T00:16:32.424Z,67.17
2019-06-26T00:19:05.099Z,68.72
2019-06-26T00:21:35.848Z,63.87
2019-06-26T00:24:06.562Z,60.73
2019-06-26T00:26:37.544Z,60.03
2019-06-26T00:29:08.111Z,56.05
2019-06-26T00:31:39.371Z,54.93
2019-06-26T00:34:11.006Z,53.95
2019-06-26T00:36:43.551Z,54.18
2019-06-26T00:39:14.181Z,54.95
2019-06-26T00:41:45.139Z,53.95
2019-06-26T00:44:15.678Z,52.98
2019-06-26T00:46:46.876Z,49.75
2019-06-26T00:49:17.584Z,48.25
2019-06-26T00:51:48.113Z,47.67
2019-06-26T00:54:18.895Z,45.85
2019-06-26T00:56:49.910Z,45.33
2019-06-26T00:59:20.449Z,44.23
2019-06-26T01:01:50.989Z,42.58
2019-06-26T01:04:25.778Z,43.58
2019-06-26T01:06:56.497Z,43.95
2019-06-26T01:09:27.489Z,41.18
2019-06-26T01:11:58.506Z,39.15
2019-06-26T01:14:29.123Z,37.20
2019-06-26T01:17:02.795Z,35.95
2019-06-26T01:19:33.342Z,34.08
2019-06-26T01:22:04.122Z,33.02
2019-06-26T01:24:35.267Z,32.65
2019-06-26T01:27:05.917Z,33.42
2019-06-26T01:29:36.907Z,31.97
2019-06-26T01:32:07.622Z,32.45
2019-06-26T01:34:38.608Z,31.10
2019-06-26T01:37:09.085Z,32.53
2019-06-26T01:39:39.817Z,29.77
2019-06-26T01:42:11.318Z,30.37
2019-06-26T01:44:42.190Z,31.55
2019-06-26T01:47:13.183Z,32.85
2019-06-26T01:49:43.737Z,29.12
2019-06-26T01:52:14.230Z,29.87
2019-06-26T01:54:44.833Z,33.53
2019-06-26T01:57:15.765Z,30.43
2019-06-26T01:59:46.663Z,29.48
2019-06-26T02:02:17.123Z,32.13
2019-06-26T02:04:47.799Z,29.65
2019-06-26T02:07:18.386Z,25.57
2019-06-26T02:09:49.465Z,31.05
2019-06-26T02:12:20.146Z,29.30
2019-06-26T02:14:50.963Z,33.67
2019-06-26T02:17:23.232Z,26.02
2019-06-26T02:19:54.181Z,23.35
2019-06-26T02:22:24.737Z,26.75
2019-06-26T02:24:55.273Z,31.77
2019-06-26T02:27:25.865Z,30.90
2019-06-26T02:29:57.261Z,28.80
2019-06-26T02:32:28.544Z,28.27
2019-06-26T02:34:59.051Z,30.65
2019-06-26T02:37:30.590Z,31.45
2019-06-26T02:40:01.505Z,26.33
2019-06-26T02:42:32.341Z,33.90
2019-06-26T02:45:03.029Z,27.50
2019-06-26T02:47:33.658Z,27.50
2019-06-26T02:50:05.138Z,33.70
2019-06-26T02:52:35.901Z,28.40
2019-06-26T02:55:07.679Z,28.83
2019-06-26T02:57:38.503Z,25.70
2019-06-26T03:00:09.807Z,28.07
2019-06-26T03:02:40.786Z,25.10
2019-06-26T03:05:12.645Z,32.28
2019-06-26T03:07:43.216Z,28.40
2019-06-26T03:10:14.155Z,28.12
2019-06-26T03:12:47.616Z,26.35
2019-06-26T03:15:19.792Z,33.85
2019-06-26T03:17:55.181Z,34.05
2019-06-26T03:20:25.627Z,31.82
2019-06-26T03:22:56.477Z,34.30
2019-06-26T03:25:27.033Z,33.80
2019-06-26T03:27:57.567Z,30.08
2019-06-26T03:30:28.231Z,35.70
2019-06-26T03:32:59.675Z,26.42
2019-06-26T03:35:30.298Z,28.42
2019-06-26T03:38:05.076Z,26.45
2019-06-26T03:40:35.554Z,26.45
2019-06-26T03:43:06.249Z,27.60
2019-06-26T03:45:36.695Z,29.02
2019-06-26T03:48:07.281Z,29.32
2019-06-26T03:50:37.751Z,29.80
2019-06-26T03:53:09.931Z,24.75
2019-06-26T03:55:41.701Z,22.22
2019-06-26T03:58:12.263Z,25.65
2019-06-26T04:00:44.126Z,26.55
2019-06-26T04:03:15.776Z,32.10
2019-06-26T04:05:46.313Z,24.80
2019-06-26T04:08:16.839Z,26.93
2019-06-26T04:10:48.197Z,29.57
2019-06-26T04:13:18.816Z,26.37
2019-06-26T04:15:51.002Z,27.65
2019-06-26T04:18:21.664Z,29.10
2019-06-26T04:20:52.402Z,29.25
2019-06-26T04:23:23.032Z,28.27
2019-06-26T04:25:54.849Z,31.57
2019-06-26T04:28:26.143Z,28.87
2019-06-26T04:30:56.612Z,28.50
2019-06-26T04:33:27.052Z,29.12
2019-06-26T04:35:57.493Z,28.65
2019-06-26T04:38:28.367Z,29.57
2019-06-26T04:40:59.144Z,33.85
2019-06-26T04:43:29.878Z,29.02
2019-06-26T04:46:01.281Z,33.63
2019-06-26T04:48:32.042Z,32.42
2019-06-26T04:51:02.677Z,32.98
2019-06-26T04:53:33.596Z,36.38
2019-06-26T04:56:04.985Z,27.45
2019-06-26T04:58:35.664Z,27.80
2019-06-26T05:01:06.290Z,26.12
2019-06-26T05:03:36.865Z,29.20
2019-06-26T05:06:10.484Z,27.60
2019-06-26T05:08:40.940Z,30.12
2019-06-26T05:11:13.017Z,28.10
2019-06-26T05:13:43.989Z,25.10
2019-06-26T05:16:19.063Z,23.85
2019-06-26T05:18:46.667Z,26.07
2019-06-26T05:21:18.204Z,27.17
2019-06-26T05:23:50.777Z,23.45
2019-06-26T05:26:21.355Z,22.45
2019-06-26T05:28:52.707Z,21.02
2019-06-26T05:31:23.436Z,19.25
2019-06-26T05:33:54.166Z,20.88
2019-06-26T05:36:24.900Z,19.12
2019-06-26T05:38:55.559Z,18.15
2019-06-26T05:41:26.514Z,20.25
2019-06-26T05:43:58.759Z,19.55
2019-06-26T05:46:31.613Z,17.77
2019-06-26T05:49:01.699Z,18.57
2019-06-26T05:51:32.244Z,17.85
2019-06-26T05:54:03.087Z,19.75
2019-06-26T05:56:33.799Z,18.45
2019-06-26T05:59:04.349Z,19.60
2019-06-26T06:01:35.334Z,16.75
2019-06-26T06:04:05.960Z,17.27
2019-06-26T06:06:41.563Z,16.67
2019-06-26T06:09:08.986Z,18.12
2019-06-26T06:11:39.924Z,17.65
2019-06-26T06:14:10.555Z,17.48
2019-06-26T06:16:47.467Z,17.20
2019-06-26T06:19:14.445Z,21.52
2019-06-26T06:21:46.755Z,18.75
2019-06-26T06:24:17.219Z,21.75
2019-06-26T06:26:48.726Z,23.38
2019-06-26T06:29:20.191Z,20.95
2019-06-26T06:31:50.968Z,20.32
2019-06-26T06:34:21.732Z,23.95
2019-06-26T06:36:52.196Z,25.55
2019-06-26T06:39:22.693Z,23.02
2019-06-26T06:41:53.189Z,24.52
2019-06-26T06:44:23.757Z,22.58
2019-06-26T06:47:03.972Z,27.87
2019-06-26T06:49:26.940Z,27.73
2019-06-26T06:51:57.514Z,23.70
2019-06-26T06:54:28.209Z,24.75
2019-06-26T06:56:59.063Z,30.30
2019-06-26T06:59:29.656Z,27.48
2019-06-26T07:02:00.677Z,24.60
2019-06-26T07:04:31.166Z,24.98
2019-06-26T07:07:01.575Z,24.00
2019-06-26T07:09:32.105Z,22.85
2019-06-26T07:12:03.728Z,21.60
2019-06-26T07:14:34.332Z,20.88
2019-06-26T07:17:19.281Z,21.35
2019-06-26T07:19:38.609Z,23.57
2019-06-26T07:22:10.057Z,24.12
2019-06-26T07:24:40.749Z,24.70
2019-06-26T07:27:12.114Z,29.65
2019-06-26T07:29:42.504Z,29.52
2019-06-26T07:32:12.956Z,26.45
2019-06-26T07:34:43.373Z,25.02
2019-06-26T07:37:13.907Z,27.50
2019-06-26T07:39:44.329Z,24.57
2019-06-26T07:42:15.788Z,21.15
2019-06-26T07:44:46.268Z,24.37
2019-06-26T07:47:23.048Z,24.00
2019-06-26T07:49:48.978Z,28.45
2019-06-26T07:52:19.875Z,26.93
2019-06-26T07:54:50.329Z,24.57
2019-06-26T07:57:21.366Z,23.80
2019-06-26T07:59:52.432Z,25.30
2019-06-26T08:02:22.950Z,27.77
2019-06-26T08:04:53.614Z,23.38
2019-06-26T08:07:24.797Z,28.15
2019-06-26T08:09:55.204Z,23.67
2019-06-26T08:12:25.674Z,23.10
2019-06-26T08:14:56.167Z,27.45
2019-06-26T08:17:26.647Z,29.45
2019-06-26T08:19:58.116Z,21.75
2019-06-26T08:22:29.639Z,23.12
2019-06-26T08:25:00.218Z,23.07
2019-06-26T08:27:30.635Z,21.55
2019-06-26T08:30:01.079Z,22.85
2019-06-26T08:32:31.557Z,20.68
2019-06-26T08:35:02.291Z,26.27
2019-06-26T08:37:35.244Z,20.52
2019-06-26T08:40:08.913Z,19.27
2019-06-26T08:42:40.160Z,24.50
2019-06-26T08:45:12.623Z,21.73
2019-06-26T08:47:43.213Z,21.55
2019-06-26T08:50:16.115Z,19.77
2019-06-26T08:52:47.587Z,20.48
2019-06-26T08:55:19.328Z,18.67
2019-06-26T08:57:50.437Z,18.80
2019-06-26T09:00:23.996Z,17.62
2019-06-26T09:02:55.617Z,18.62
2019-06-26T09:05:26.817Z,20.85
2019-06-26T09:07:57.646Z,20.23
2019-06-26T09:10:29.985Z,19.05
2019-06-26T09:13:19.758Z,19.87
2019-06-26T09:15:50.619Z,12.70
2019-06-26T09:18:34.808Z,18.67
2019-06-26T09:20:53.524Z,13.43
2019-06-26T09:23:24.243Z,14.13
2019-06-26T09:25:55.049Z,19.67
2019-06-26T09:28:26.369Z,16.27
2019-06-26T09:30:56.902Z,17.85
2019-06-26T09:33:32.153Z,14.65
2019-06-26T09:36:01.153Z,14.75
2019-06-26T09:38:31.716Z,14.65
2019-06-26T09:41:02.621Z,16.85
2019-06-26T09:43:33.885Z,14.40
2019-06-26T09:46:05.766Z,17.10
2019-06-26T09:48:51.374Z,16.15
2019-06-26T09:51:08.991Z,16.48
2019-06-26T09:53:47.122Z,17.37
2019-06-26T09:56:12.768Z,14.70
2019-06-26T09:58:43.413Z,10.53
2019-06-26T10:01:13.973Z,15.35
2019-06-26T10:03:45.392Z,10.53
2019-06-26T10:06:17.297Z,12.73
2019-06-26T10:08:47.894Z,14.25
2019-06-26T10:11:19.599Z,12.70
2019-06-26T10:13:50.831Z,11.43
2019-06-26T10:16:21.448Z,10.30
2019-06-26T10:19:09.383Z,13.08
2019-06-26T10:21:29.561Z,11.63
2019-06-26T10:24:09.185Z,10.05
2019-06-26T10:26:40.128Z,7.95
2019-06-26T10:29:22.813Z,9.50
2019-06-26T10:31:55.602Z,10.63
2019-06-26T10:34:27.564Z,9.30
2019-06-26T10:37:00.398Z,10.35
2019-06-26T10:39:34.436Z,11.03
2019-06-26T10:42:09.623Z,9.70
2019-06-26T10:44:40.533Z,11.15
2019-06-26T10:47:24.936Z,13.48
2019-06-26T10:50:18.709Z,16.10
2019-06-26T10:52:39.858Z,9.40
2019-06-26T10:55:21.239Z,9.45
2019-06-26T10:58:02.360Z,10.70
2019-06-26T11:00:33.326Z,14.93
2019-06-26T11:03:06.987Z,7.83
2019-06-26T11:05:38.611Z,13.70
2019-06-26T11:08:09.442Z,12.43
2019-06-26T11:11:11.013Z,12.78
2019-06-26T11:13:36.516Z,13.05
2019-06-26T11:16:08.827Z,10.30
2019-06-26T11:18:39.523Z,6.42
2019-06-26T11:21:28.108Z,9.03
2019-06-26T11:24:08.461Z,9.88
2019-06-26T11:26:40.839Z,7.28
2019-06-26T11:32:09.732Z,7.25
2019-06-26T11:34:46.739Z,9.33
2019-06-26T11:37:22.841Z,8.43
2019-06-26T11:39:52.851Z,11.22
2019-06-26T11:42:52.244Z,13.58
2019-06-26T11:46:16.403Z,9.40
2019-06-26T11:48:55.660Z,11.25
2019-06-26T11:52:15.430Z,9.68
2019-06-26T11:55:34.893Z,11.05
2019-06-26T11:58:13.870Z,11.55
2019-06-26T12:00:48.516Z,6.35
2019-06-26T12:03:44.089Z,10.88
2019-06-26T12:06:34.099Z,7.05
2019-06-26T12:09:08.946Z,6.33
2019-06-26T12:11:42.475Z,5.83
2019-06-26T12:14:24.421Z,9.78
2019-06-26T12:17:02.413Z,9.33
2019-06-26T12:19:34.615Z,11.25
2019-06-26T12:22:46.878Z,6.50
2019-06-26T12:26:07.937Z,12.78
2019-06-26T12:29:17.117Z,8.63
2019-06-26T12:35:05.082Z,6.80
2019-06-26T12:37:38.373Z,8.68
2019-06-26T12:40:22.025Z,7.25
2019-06-26T12:43:19.278Z,9.10
2019-06-26T12:46:29.840Z,6.05
2019-06-26T12:49:25.886Z,8.98
2019-06-26T12:52:25.311Z,7.20
2019-06-26T12:54:55.901Z,6.10
2019-06-26T12:57:52.974Z,7.83
2019-06-26T13:00:31.741Z,5.15
2019-06-26T13:03:15.513Z,8.10
2019-06-26T13:06:05.598Z,6.92
2019-06-26T13:08:42.488Z,6.70
2019-06-26T13:11:14.362Z,4.85
2019-06-26T13:14:01.474Z,5.28
2019-06-26T13:16:21.904Z,7.80
2019-06-26T13:18:59.531Z,8.55
2019-06-26T13:21:30.978Z,7.92
2019-06-26T13:24:12.043Z,10.32
2019-06-26T13:29:41.217Z,8.55
2019-06-26T13:33:13.452Z,4.97
2019-06-26T13:36:04.973Z,6.83
2019-06-26T13:38:37.194Z,12.05
2019-06-26T13:41:34.806Z,6.25
2019-06-26T13:43:55.750Z,7.03
2019-06-26T13:46:34.496Z,5.37
2019-06-26T13:49:05.764Z,5.97
2019-06-26T13:51:38.356Z,8.28
2019-06-26T13:54:09.211Z,5.90
2019-06-26T13:56:40.123Z,5.80
2019-06-26T13:59:12.176Z,8.35
2019-06-26T14:01:54.954Z,5.60
2019-06-26T14:04:29.628Z,5.22
2019-06-26T14:07:02.618Z,9.65
2019-06-26T14:09:33.309Z,9.20
2019-06-26T14:12:04.051Z,5.45
2019-06-26T14:14:56.251Z,7.15
2019-06-26T14:17:10.919Z,7.90
2019-06-26T14:19:54.655Z,5.80
2019-06-26T14:22:25.689Z,5.90
2019-06-26T14:25:31.004Z,5.90
2019-06-26T14:28:02.787Z,5.22
2019-06-26T14:30:37.285Z,8.15
2019-06-26T14:33:21.821Z,7.47
2019-06-26T14:35:55.842Z,6.00
2019-06-26T14:38:26.544Z,10.10
2019-06-26T14:40:57.617Z,8.50
2019-06-26T14:43:28.591Z,7.97
2019-06-26T14:46:04.300Z,8.43
2019-06-26T14:48:37.418Z,6.47
2019-06-26T14:51:08.000Z,9.43
2019-06-26T14:53:39.183Z,6.90
2019-06-26T14:56:19.108Z,4.83
2019-06-26T14:58:50.031Z,8.30
2019-06-26T15:01:20.914Z,8.13
2019-06-26T15:03:51.751Z,7.33
2019-06-26T15:06:33.733Z,10.03
2019-06-26T15:09:12.135Z,7.92
2019-06-26T15:11:43.021Z,8.25
2019-06-26T15:14:16.811Z,8.08
2019-06-26T15:16:48.140Z,6.72
2019-06-26T15:19:21.726Z,5.53
2019-06-26T15:21:58.269Z,5.45
2019-06-26T15:24:30.043Z,5.37
2019-06-26T15:27:27.817Z,6.92
2019-06-26T15:30:00.349Z,5.20
2019-06-26T15:32:31.238Z,6.15
2019-06-26T15:35:04.191Z,9.88
2019-06-26T15:37:35.134Z,7.72
2019-06-26T15:40:06.654Z,50.05
2019-06-26T15:42:40.614Z,38.58
2019-06-26T15:45:13.050Z,8.45
2019-06-26T15:47:44.898Z,9.38
2019-06-26T15:50:17.129Z,9.20
2019-06-26T15:52:47.780Z,6.33
2019-06-26T15:55:19.237Z,10.32
2019-06-26T15:57:49.953Z,62.83
2019-06-26T16:00:20.848Z,10.58
2019-06-26T16:02:52.045Z,24.02
2019-06-26T16:05:22.565Z,10.65
2019-06-26T16:07:53.739Z,9.08
2019-06-26T16:10:24.459Z,6.67
2019-06-26T16:12:55.032Z,6.22
2019-06-26T16:15:26.114Z,6.17
2019-06-26T16:18:02.344Z,5.47
2019-06-26T16:20:33.016Z,6.85
2019-06-26T16:23:04.249Z,8.95
2019-06-26T16:25:35.257Z,7.10
2019-06-26T16:28:06.271Z,5.67
2019-06-26T16:30:36.871Z,10.68
2019-06-26T16:33:07.410Z,10.55
2019-06-26T16:35:37.772Z,7.20
2019-06-26T16:38:08.990Z,6.90
2019-06-26T16:40:39.559Z,7.17
2019-06-26T16:43:10.165Z,5.60
2019-06-26T16:45:40.634Z,5.97
2019-06-26T16:48:11.194Z,6.20
2019-06-26T16:50:41.966Z,7.62
2019-06-26T16:53:12.612Z,10.88
2019-06-26T16:55:43.327Z,9.43
2019-06-26T16:58:15.825Z,4.17
2019-06-26T17:00:58.526Z,6.80
2019-06-26T17:03:29.047Z,5.97
2019-06-26T17:05:59.705Z,5.40
2019-06-26T17:08:30.550Z,7.53
2019-06-26T17:11:01.284Z,6.00
2019-06-26T17:13:31.839Z,3.85
2019-06-26T17:16:02.417Z,5.80
2019-06-26T17:18:34.991Z,6.67
2019-06-26T17:21:06.641Z,7.12
2019-06-26T17:23:37.912Z,7.97
2019-06-26T17:26:08.651Z,6.83
2019-06-26T17:28:39.347Z,4.53
2019-06-26T17:31:09.881Z,7.60
2019-06-26T17:33:40.441Z,7.25
2019-06-26T17:36:12.008Z,5.35
2019-06-26T17:38:42.822Z,5.45
2019-06-26T17:41:13.646Z,7.12
2019-06-26T17:43:44.208Z,5.05
2019-06-26T17:46:14.852Z,7.28
2019-06-26T17:48:45.462Z,8.58
2019-06-26T17:51:15.973Z,9.83
2019-06-26T17:53:46.703Z,8.88
2019-06-26T17:56:17.277Z,7.10
2019-06-26T17:58:47.852Z,11.38
2019-06-26T18:01:18.424Z,7.15
2019-06-26T18:03:49.077Z,11.90
2019-06-26T18:06:19.816Z,4.83
2019-06-26T18:08:50.476Z,6.22
2019-06-26T18:11:20.981Z,6.05
2019-06-26T18:13:51.469Z,6.80
2019-06-26T18:16:22.260Z,6.72
2019-06-26T18:18:52.911Z,7.58
2019-06-26T18:21:23.536Z,6.20
2019-06-26T18:23:54.054Z,7.47
2019-06-26T18:26:24.569Z,6.53
2019-06-26T18:28:56.819Z,8.78
2019-06-26T18:31:30.596Z,8.38
2019-06-26T18:34:00.468Z,8.95
2019-06-26T18:36:33.482Z,12.95
2019-06-26T18:39:03.586Z,7.40
2019-06-26T18:41:35.110Z,6.95
2019-06-26T18:44:05.728Z,7.55
2019-06-26T18:46:36.229Z,6.25
2019-06-26T18:49:06.842Z,12.13
2019-06-26T18:51:37.477Z,6.97
2019-06-26T18:54:08.104Z,5.40
2019-06-26T18:56:38.985Z,5.28
2019-06-26T18:59:09.471Z,6.75
2019-06-26T19:01:40.392Z,9.03
2019-06-26T19:04:11.225Z,9.08
2019-06-26T19:06:41.795Z,6.62
2019-06-26T19:09:12.430Z,10.30
2019-06-26T19:11:43.200Z,8.08
2019-06-26T19:14:13.810Z,10.18
2019-06-26T19:16:44.411Z,9.73
2019-06-26T19:19:15.155Z,6.35
2019-06-26T19:21:45.635Z,9.78
2019-06-26T19:24:16.123Z,6.85
2019-06-26T19:26:46.805Z,5.37
2019-06-26T19:29:17.426Z,7.72
2019-06-26T19:31:47.940Z,10.90
2019-06-26T19:34:18.787Z,8.28
2019-06-26T19:36:50.664Z,6.45
2019-06-26T19:39:21.531Z,12.05
2019-06-26T19:41:53.703Z,7.65
2019-06-26T19:44:24.339Z,9.55
2019-06-26T19:46:55.028Z,10.13
2019-06-26T19:49:25.566Z,10.13
2019-06-26T19:51:56.238Z,9.33
2019-06-26T19:54:31.891Z,9.05
2019-06-26T19:57:00.267Z,4.20
2019-06-26T19:59:30.978Z,8.38
2019-06-26T20:02:01.627Z,8.00
2019-06-26T20:04:32.215Z,7.28
2019-06-26T20:07:03.940Z,6.42
2019-06-26T20:09:34.691Z,5.03
2019-06-26T20:12:05.263Z,7.58
2019-06-26T20:14:35.890Z,8.78
2019-06-26T20:17:06.426Z,10.03
2019-06-26T20:19:37.621Z,5.95
2019-06-26T20:22:08.705Z,5.42
2019-06-26T20:24:44.083Z,8.40
2019-06-26T20:27:12.949Z,7.87
2019-06-26T20:29:43.654Z,9.93
2019-06-26T20:32:14.165Z,8.75
2019-06-26T20:34:44.673Z,8.63
2019-06-26T20:37:15.113Z,7.62
2019-06-26T20:39:46.310Z,8.35
2019-06-26T20:42:19.352Z,8.33
2019-06-26T20:44:49.752Z,8.25
2019-06-26T20:47:20.896Z,9.93
2019-06-26T20:49:53.493Z,8.15
2019-06-26T20:52:23.481Z,10.70
2019-06-26T20:55:01.020Z,9.05
2019-06-26T20:57:26.745Z,6.28
2019-06-26T20:59:57.575Z,5.85
2019-06-26T21:02:28.015Z,7.87
2019-06-26T21:04:58.753Z,9.63
2019-06-26T21:07:29.567Z,9.33
2019-06-26T21:10:01.396Z,9.90
2019-06-26T21:12:31.818Z,9.53
2019-06-26T21:15:02.392Z,10.40
2019-06-26T21:17:33.024Z,11.25
2019-06-26T21:20:03.782Z,13.35
2019-06-26T21:22:34.442Z,9.13
2019-06-26T21:25:17.574Z,9.20
2019-06-26T21:27:38.347Z,10.68
2019-06-26T21:30:09.553Z,10.53
2019-06-26T21:32:40.041Z,8.83
2019-06-26T21:35:10.796Z,13.62
2019-06-26T21:37:41.283Z,9.88
2019-06-26T21:40:13.248Z,11.05
2019-06-26T21:42:45.582Z,10.58
2019-06-26T21:45:20.025Z,11.53
2019-06-26T21:47:51.173Z,10.08
2019-06-26T21:50:23.389Z,10.80
2019-06-26T21:52:56.011Z,6.25
2019-06-26T21:55:34.137Z,9.80
2019-06-26T21:58:20.811Z,9.53
2019-06-26T22:01:09.506Z,9.58
2019-06-26T22:04:01.894Z,12.55
2019-06-26T22:06:36.033Z,14.07
2019-06-26T22:09:15.777Z,7.55
2019-06-26T22:11:49.081Z,7.05
2019-06-26T22:14:21.425Z,12.07
2019-06-26T22:16:53.599Z,8.93
2019-06-26T22:19:25.137Z,5.92
2019-06-26T22:21:56.342Z,9.43
2019-06-26T22:24:28.060Z,6.45
2019-06-26T22:27:01.949Z,8.13
2019-06-26T22:29:34.166Z,10.10
2019-06-26T22:32:05.589Z,12.05
2019-06-26T22:34:36.201Z,8.75
2019-06-26T22:37:08.085Z,11.78
2019-06-26T22:39:39.869Z,11.68
2019-06-26T22:42:12.072Z,6.58
2019-06-26T22:44:45.437Z,9.25
2019-06-26T22:47:16.496Z,12.13
2019-06-26T22:49:49.150Z,8.40
2019-06-26T22:52:20.264Z,14.13
2019-06-26T22:54:51.531Z,10.23
2019-06-26T22:57:23.569Z,14.58
2019-06-26T22:59:55.294Z,9.68
2019-06-26T23:02:26.258Z,12.75
2019-06-26T23:04:57.209Z,8.13
2019-06-26T23:07:30.180Z,9.38
2019-06-26T23:10:00.771Z,9.40
2019-06-26T23:12:32.561Z,8.25
2019-06-26T23:15:03.821Z,11.65
2019-06-26T23:17:35.333Z,9.73
2019-06-26T23:20:08.874Z,16.95
2019-06-26T23:22:40.611Z,11.85
2019-06-26T23:25:11.772Z,10.78
2019-06-26T23:27:44.885Z,8.80
2019-06-26T23:30:21.919Z,7.53
2019-06-26T23:32:55.049Z,11.38
2019-06-26T23:35:26.279Z,8.83
2019-06-26T23:37:58.089Z,10.68
2019-06-26T23:40:30.915Z,10.82
2019-06-26T23:43:05.961Z,12.30
2019-06-26T23:45:37.041Z,9.45
2019-06-26T23:48:07.546Z,8.78
2019-06-26T23:50:39.791Z,10.25
2019-06-26T23:53:10.345Z,7.97
2019-06-26T23:55:40.880Z,10.32
2019-06-26T23:58:11.607Z,11.35
